»·PEaware :: N4657 KSBP-L35

N4657 :: KSBP-L35

FLIGHT INFORMATION

Flight Status: Arrived
Operator: Privately registered:
United States
More flights under this callsign
Pilot: Daniel P. (20187)
Aircraft: PILATUS PC-12 EAGLE
(PC12)
More flights by this aircraft type
Origin: KSBP San Luis Co Regl
United States
Destination: L35 Big Bear City
United States
More flights between these airports :: More routes between these airports
Route: +FLW GMN L70
File this flight plan on PilotEdge
Remarks:
Altitude:
(Current/Filed)
11,500ft
Speed:
(Current/Filed)
200kts
Departed: 31-Aug-18 09:11 AM
Arrived: 31-Aug-18 10:03 AM
Distance/Time
Traveled:
196nm/0:51
Distance/Time
To Go:
Arrived

Flight Plot

Page will automatically refresh every two minutes.

Flight plan parsing failed; only flown route is shown


Map Options




Map Legend


Flown Route
Filed Route
Departure Airport
Arrival Airport
Navaid (VOR, NDB)
Fix

Horizontal Profiles

Position Reports

Time Latitude Longitude Heading Altitude Ground
Speed
31-Aug-18 08:15 35.237915 -120.638632 270 196ft 0kts
31-Aug-18 08:16 35.237915 -120.638632 270 196ft 0kts
31-Aug-18 08:17 35.237915 -120.638632 270 196ft 0kts
31-Aug-18 08:18 35.237915 -120.638632 270 196ft 0kts
31-Aug-18 08:19 35.237915 -120.638632 270 196ft 0kts
31-Aug-18 08:20 35.237915 -120.638632 270 196ft 0kts
31-Aug-18 08:21 35.237915 -120.638632 270 196ft 0kts
31-Aug-18 08:22 35.237915 -120.638632 270 196ft 0kts
31-Aug-18 08:23 35.237915 -120.638632 270 196ft 0kts
31-Aug-18 08:24 35.237915 -120.638632 270 196ft 0kts
31-Aug-18 08:25 35.237915 -120.638632 270 196ft 0kts
31-Aug-18 08:26 35.237915 -120.638632 270 196ft 0kts
31-Aug-18 08:27 35.237915 -120.638632 270 196ft 0kts
31-Aug-18 08:28 35.237915 -120.638632 270 196ft 0kts
31-Aug-18 08:29 35.237915 -120.638632 270 196ft 0kts
31-Aug-18 08:30 35.237915 -120.638632 270 196ft 0kts
31-Aug-18 08:31 35.237915 -120.638632 270 196ft 0kts
31-Aug-18 08:32 35.237915 -120.638632 270 196ft 0kts
31-Aug-18 08:33 35.237915 -120.638632 270 196ft 0kts
31-Aug-18 08:34 35.237915 -120.638632 270 196ft 0kts
31-Aug-18 08:35 35.237915 -120.638632 270 196ft 0kts
31-Aug-18 08:36 35.237915 -120.638632 270 196ft 0kts
31-Aug-18 08:37 35.237915 -120.638632 270 196ft 0kts
31-Aug-18 08:38 35.237915 -120.638632 270 196ft 0kts
31-Aug-18 08:39 35.237915 -120.638632 270 196ft 0kts
31-Aug-18 08:40 35.237915 -120.638632 270 196ft 0kts
31-Aug-18 08:41 35.237915 -120.638632 270 196ft 0kts
31-Aug-18 08:42 35.237915 -120.638632 270 196ft 0kts
31-Aug-18 08:43 35.237915 -120.638632 270 196ft 0kts
31-Aug-18 08:44 35.237915 -120.638632 270 196ft 0kts
31-Aug-18 08:45 35.237915 -120.638632 270 196ft 0kts
31-Aug-18 08:46 35.237915 -120.638632 270 196ft 0kts
31-Aug-18 08:47 35.237915 -120.638632 270 196ft 0kts
31-Aug-18 08:48 35.237915 -120.638632 270 196ft 0kts
31-Aug-18 08:49 35.237915 -120.638632 270 196ft 0kts
31-Aug-18 08:50 35.237915 -120.638632 270 196ft 0kts
31-Aug-18 08:51 35.237915 -120.638632 270 196ft 0kts
31-Aug-18 08:52 35.237915 -120.638632 270 196ft 0kts
31-Aug-18 08:53 35.237915 -120.638632 270 196ft 0kts
31-Aug-18 08:54 35.237915 -120.638632 270 196ft 0kts
31-Aug-18 08:55 35.237915 -120.638632 270 196ft 0kts
31-Aug-18 08:56 35.237915 -120.638632 270 196ft 0kts
31-Aug-18 08:57 35.237915 -120.638632 270 196ft 0kts
31-Aug-18 08:58 35.237915 -120.638632 270 196ft 0kts
31-Aug-18 08:59 35.237915 -120.638632 270 196ft 0kts
31-Aug-18 09:00 35.237915 -120.638632 270 196ft 0kts
31-Aug-18 09:01 35.237915 -120.638632 270 196ft 0kts
31-Aug-18 09:02 35.237915 -120.638632 270 196ft 0kts
31-Aug-18 09:03 35.237915 -120.638632 270 196ft 0kts
31-Aug-18 09:04 35.237915 -120.638632 270 196ft 0kts
31-Aug-18 09:05 35.237915 -120.638632 270 196ft 0kts
31-Aug-18 09:06 35.237915 -120.638632 270 196ft 0kts
31-Aug-18 09:07 35.237911 -120.638791 256 196ft 4kts
31-Aug-18 09:08 35.235957 -120.636698 125 204ft 14kts
31-Aug-18 09:09 35.233786 -120.632860 119 212ft 15kts
31-Aug-18 09:10 35.233181 -120.632436 226 212ft 0kts
31-Aug-18 09:11 35.233070 -120.633520 302 210ft 24kts
31-Aug-18 09:12 35.253648 -120.659514 9 1879ft 148kts
31-Aug-18 09:13 35.248642 -120.601741 122 2746ft 227kts
31-Aug-18 09:14 35.219269 -120.534196 111 4054ft 227kts
31-Aug-18 09:15 35.198162 -120.461333 105 5367ft 228kts
31-Aug-18 09:16 35.183197 -120.386160 99 6673ft 229kts
31-Aug-18 09:17 35.173853 -120.313050 97 6725ft 200kts
31-Aug-18 09:18 35.167842 -120.240515 91 6525ft 234kts
31-Aug-18 09:19 35.155381 -120.162725 113 6917ft 242kts
31-Aug-18 09:20 35.135427 -120.085396 102 7681ft 230kts
31-Aug-18 09:21 35.121048 -120.011252 101 8922ft 223kts
31-Aug-18 09:22 35.106999 -119.937248 101 10109ft 225kts
31-Aug-18 09:23 35.092362 -119.862270 106 11006ft 239kts
31-Aug-18 09:24 35.069613 -119.781945 108 11012ft 257kts
31-Aug-18 09:26 35.045978 -119.698778 108 11016ft 260kts
31-Aug-18 09:27 35.022227 -119.615368 108 11025ft 261kts
31-Aug-18 09:28 34.998250 -119.531448 108 11022ft 263kts
31-Aug-18 09:29 34.973992 -119.446872 108 11039ft 265kts
31-Aug-18 09:30 34.949522 -119.361764 108 11056ft 267kts
31-Aug-18 09:31 34.925241 -119.277538 108 11353ft 259kts
31-Aug-18 09:32 34.901137 -119.194124 109 11564ft 268kts
31-Aug-18 09:33 34.876557 -119.109393 109 11616ft 273kts
31-Aug-18 09:34 34.851149 -119.022027 109 11680ft 274kts
31-Aug-18 09:35 34.825656 -118.934586 109 11682ft 275kts
31-Aug-18 09:35 34.804056 -118.861711 116 11677ft 274kts
31-Aug-18 09:37 34.756344 -118.774089 125 11682ft 259kts
31-Aug-18 09:37 34.723984 -118.715247 125 11379ft 243kts
31-Aug-18 09:39 34.681212 -118.637378 125 10929ft 238kts
31-Aug-18 09:40 34.644332 -118.570456 125 11560ft 243kts
31-Aug-18 09:40 34.612002 -118.511967 125 11562ft 256kts
31-Aug-18 09:42 34.565549 -118.427995 125 11530ft 261kts
31-Aug-18 09:42 34.531815 -118.367136 125 11531ft 261kts
31-Aug-18 09:43 34.498375 -118.292651 98 11533ft 263kts
31-Aug-18 09:44 34.485356 -118.205043 100 11504ft 264kts
31-Aug-18 09:45 34.471490 -118.117636 100 11499ft 264kts
31-Aug-18 09:46 34.457603 -118.030526 100 11504ft 264kts
31-Aug-18 09:47 34.443638 -117.943339 100 11519ft 264kts
31-Aug-18 09:48 34.429643 -117.856382 100 11539ft 263kts
31-Aug-18 09:49 34.415567 -117.769353 100 11548ft 263kts
31-Aug-18 09:50 34.401451 -117.682089 100 11379ft 268kts
31-Aug-18 09:51 34.387643 -117.597564 100 10981ft 249kts
31-Aug-18 09:52 34.374323 -117.516243 100 10640ft 243kts
31-Aug-18 09:53 34.361324 -117.436675 101 10432ft 239kts
31-Aug-18 09:54 34.349036 -117.363495 101 10232ft 238kts
31-Aug-18 09:55 34.336270 -117.286497 101 10006ft 238kts
31-Aug-18 09:56 34.323202 -117.208099 101 9775ft 237kts
31-Aug-18 09:57 34.310225 -117.130536 101 9687ft 234kts
31-Aug-18 09:58 34.298308 -117.059534 101 9527ft 200kts
31-Aug-18 09:59 34.287536 -116.995648 102 9243ft 190kts
31-Aug-18 10:00 34.276513 -116.932853 101 8873ft 206kts
31-Aug-18 10:01 34.271505 -116.870684 90 8572ft 160kts
31-Aug-18 10:02 34.269260 -116.822438 143 8205ft 123kts
31-Aug-18 10:03 34.263813 -116.847843 267 6759ft 78kts
31-Aug-18 10:04 34.262754 -116.853623 180 6752ft 4kts
31-Aug-18 10:05 34.262202 -116.854021 87 6752ft 0kts
31-Aug-18 10:06 34.262202 -116.854021 87 6752ft 0kts
31-Aug-18 10:07 34.262202 -116.854021 87 6752ft 0kts
31-Aug-18 10:08 34.262202 -116.854021 87 6752ft 0kts
31-Aug-18 10:09 34.262202 -116.854021 87 6752ft 0kts
31-Aug-18 10:10 34.262202 -116.854021 87 6752ft 0kts
31-Aug-18 10:11 34.262202 -116.854021 87 6752ft 0kts
31-Aug-18 10:12 34.262202 -116.854021 87 6752ft 0kts
31-Aug-18 10:13 34.262202 -116.854021 87 6752ft 0kts
31-Aug-18 10:14 34.262202 -116.854021 87 6752ft 0kts
31-Aug-18 10:15 34.262202 -116.854021 87 6752ft 0kts
31-Aug-18 10:16 34.262202 -116.854021 87 6752ft 0kts
31-Aug-18 10:17 34.262202 -116.854021 87 6752ft 0kts
31-Aug-18 10:18 34.262202 -116.854021 87 6752ft 0kts

Navigation Log

Ident Type
Flight plan parsing failed, navigation log unavailable